sensor_id;sensor_type;location;lat;lon;timestamp;temperature;humidity
5834;DHT22;2943;48.012;10.968;2022-08-11T00:01:54;18.50;95.80
5834;DHT22;2943;48.012;10.968;2022-08-11T00:04:25;18.50;95.90
5834;DHT22;2943;48.012;10.968;2022-08-11T00:06:54;18.50;95.90
5834;DHT22;2943;48.012;10.968;2022-08-11T00:09:29;18.40;96.00
5834;DHT22;2943;48.012;10.968;2022-08-11T00:11:57;18.40;96.10
5834;DHT22;2943;48.012;10.968;2022-08-11T00:14:28;18.40;96.20
5834;DHT22;2943;48.012;10.968;2022-08-11T00:16:58;18.40;96.30
5834;DHT22;2943;48.012;10.968;2022-08-11T00:19:30;18.30;96.40
5834;DHT22;2943;48.012;10.968;2022-08-11T00:21:58;18.30;96.50
5834;DHT22;2943;48.012;10.968;2022-08-11T00:24:31;18.20;96.50
5834;DHT22;2943;48.012;10.968;2022-08-11T00:26:59;18.20;96.70
5834;DHT22;2943;48.012;10.968;2022-08-11T00:29:28;18.20;96.80
5834;DHT22;2943;48.012;10.968;2022-08-11T00:31:56;18.10;96.80
5834;DHT22;2943;48.012;10.968;2022-08-11T00:34:29;18.10;96.90
5834;DHT22;2943;48.012;10.968;2022-08-11T00:37:00;18.10;97.00
5834;DHT22;2943;48.012;10.968;2022-08-11T00:39:31;18.00;97.10
5834;DHT22;2943;48.012;10.968;2022-08-11T00:42:17;18.00;97.20
5834;DHT22;2943;48.012;10.968;2022-08-11T00:45:03;17.90;97.30
5834;DHT22;2943;48.012;10.968;2022-08-11T00:47:43;17.90;97.40
5834;DHT22;2943;48.012;10.968;2022-08-11T00:50:23;17.80;97.40
5834;DHT22;2943;48.012;10.968;2022-08-11T00:53:22;17.80;97.50
5834;DHT22;2943;48.012;10.968;2022-08-11T00:59:22;17.70;97.70
5834;DHT22;2943;48.012;10.968;2022-08-11T01:02:05;17.60;97.90
5834;DHT22;2943;48.012;10.968;2022-08-11T01:08:11;17.50;98.20
5834;DHT22;2943;48.012;10.968;2022-08-11T01:14:20;17.40;98.50
5834;DHT22;2943;48.012;10.968;2022-08-11T01:20:13;17.30;98.80
5834;DHT22;2943;48.012;10.968;2022-08-11T01:26:21;17.30;99.10
5834;DHT22;2943;48.012;10.968;2022-08-11T01:29:36;17.30;99.10
5834;DHT22;2943;48.012;10.968;2022-08-11T01:35:39;17.20;99.50
5834;DHT22;2943;48.012;10.968;2022-08-11T01:38:43;17.20;99.60
5834;DHT22;2943;48.012;10.968;2022-08-11T01:41:45;17.20;99.80
5834;DHT22;2943;48.012;10.968;2022-08-11T01:44:58;17.10;99.80
5834;DHT22;2943;48.012;10.968;2022-08-11T01:47:33;17.10;99.90
5834;DHT22;2943;48.012;10.968;2022-08-11T01:50:24;17.10;99.90
5834;DHT22;2943;48.012;10.968;2022-08-11T01:53:22;17.10;99.90
5834;DHT22;2943;48.012;10.968;2022-08-11T01:56:00;17.00;99.90
5834;DHT22;2943;48.012;10.968;2022-08-11T01:58:37;17.00;99.90
5834;DHT22;2943;48.012;10.968;2022-08-11T02:01:22;17.00;99.90
5834;DHT22;2943;48.012;10.968;2022-08-11T02:03:56;16.90;99.90
5834;DHT22;2943;48.012;10.968;2022-08-11T02:06:31;16.90;99.90
5834;DHT22;2943;48.012;10.968;2022-08-11T02:09:31;16.90;99.90
5834;DHT22;2943;48.012;10.968;2022-08-11T02:12:17;16.90;99.90
5834;DHT22;2943;48.012;10.968;2022-08-11T02:14:58;16.80;99.90
5834;DHT22;2943;48.012;10.968;2022-08-11T02:17:40;16.80;99.90
5834;DHT22;2943;48.012;10.968;2022-08-11T02:20:15;16.80;99.90
5834;DHT22;2943;48.012;10.968;2022-08-11T02:23:10;16.70;99.90
5834;DHT22;2943;48.012;10.968;2022-08-11T02:26:09;16.70;99.90
5834;DHT22;2943;48.012;10.968;2022-08-11T02:28:50;16.60;99.90
5834;DHT22;2943;48.012;10.968;2022-08-11T02:31:26;16.60;99.90
5834;DHT22;2943;48.012;10.968;2022-08-11T02:34:18;16.50;99.90
5834;DHT22;2943;48.012;10.968;2022-08-11T02:36:54;16.50;99.90
5834;DHT22;2943;48.012;10.968;2022-08-11T02:39:23;16.50;99.90
5834;DHT22;2943;48.012;10.968;2022-08-11T02:42:07;16.50;99.90
5834;DHT22;2943;48.012;10.968;2022-08-11T02:45:15;16.40;99.90
5834;DHT22;2943;48.012;10.968;2022-08-11T02:47:53;16.40;99.90
5834;DHT22;2943;48.012;10.968;2022-08-11T02:50:50;16.40;99.90
5834;DHT22;2943;48.012;10.968;2022-08-11T02:53:25;16.30;99.90
5834;DHT22;2943;48.012;10.968;2022-08-11T02:56:02;16.30;99.90
5834;DHT22;2943;48.012;10.968;2022-08-11T02:58:43;16.30;99.90
5834;DHT22;2943;48.012;10.968;2022-08-11T03:01:42;16.30;99.90
5834;DHT22;2943;48.012;10.968;2022-08-11T03:04:19;16.30;99.90
5834;DHT22;2943;48.012;10.968;2022-08-11T03:06:51;16.20;99.90
5834;DHT22;2943;48.012;10.968;2022-08-11T03:09:28;16.20;99.90
5834;DHT22;2943;48.012;10.968;2022-08-11T03:12:09;16.20;99.90
5834;DHT22;2943;48.012;10.968;2022-08-11T03:15:00;16.10;99.90
5834;DHT22;2943;48.012;10.968;2022-08-11T03:17:56;16.20;99.90
5834;DHT22;2943;48.012;10.968;2022-08-11T03:20:35;16.10;99.90
5834;DHT22;2943;48.012;10.968;2022-08-11T03:23:10;16.10;99.90
5834;DHT22;2943;48.012;10.968;2022-08-11T03:25:48;16.00;99.90
5834;DHT22;2943;48.012;10.968;2022-08-11T03:28:26;16.00;99.90
5834;DHT22;2943;48.012;10.968;2022-08-11T03:31:09;15.90;99.90
5834;DHT22;2943;48.012;10.968;2022-08-11T03:33:46;15.90;99.90
5834;DHT22;2943;48.012;10.968;2022-08-11T03:36:56;15.80;99.90
5834;DHT22;2943;48.012;10.968;2022-08-11T03:39:41;15.80;99.90
5834;DHT22;2943;48.012;10.968;2022-08-11T03:42:17;15.70;99.90
5834;DHT22;2943;48.012;10.968;2022-08-11T03:44:58;15.70;99.90
5834;DHT22;2943;48.012;10.968;2022-08-11T03:50:31;15.60;99.90
5834;DHT22;2943;48.012;10.968;2022-08-11T03:53:15;15.60;99.90
5834;DHT22;2943;48.012;10.968;2022-08-11T03:56:05;15.60;99.90
5834;DHT22;2943;48.012;10.968;2022-08-11T03:58:59;15.60;99.90
5834;DHT22;2943;48.012;10.968;2022-08-11T04:05:02;15.60;99.90
5834;DHT22;2943;48.012;10.968;2022-08-11T04:11:11;15.70;99.90
5834;DHT22;2943;48.012;10.968;2022-08-11T04:20:42;15.60;99.90
5834;DHT22;2943;48.012;10.968;2022-08-11T04:23:29;15.60;99.90
5834;DHT22;2943;48.012;10.968;2022-08-11T04:29:34;15.60;99.90
5834;DHT22;2943;48.012;10.968;2022-08-11T04:32:35;15.50;99.90
5834;DHT22;2943;48.012;10.968;2022-08-11T04:35:27;15.50;99.90
5834;DHT22;2943;48.012;10.968;2022-08-11T04:41:27;15.50;99.90
5834;DHT22;2943;48.012;10.968;2022-08-11T04:44:27;15.50;99.90
5834;DHT22;2943;48.012;10.968;2022-08-11T04:47:21;15.40;99.90
5834;DHT22;2943;48.012;10.968;2022-08-11T04:50:22;15.40;99.90
5834;DHT22;2943;48.012;10.968;2022-08-11T04:53:33;15.40;99.90
5834;DHT22;2943;48.012;10.968;2022-08-11T04:56:27;15.30;99.90
5834;DHT22;2943;48.012;10.968;2022-08-11T04:59:50;15.30;99.90
5834;DHT22;2943;48.012;10.968;2022-08-11T05:06:21;15.20;99.90
5834;DHT22;2943;48.012;10.968;2022-08-11T05:09:29;15.20;99.90
5834;DHT22;2943;48.012;10.968;2022-08-11T05:12:14;15.30;99.90
5834;DHT22;2943;48.012;10.968;2022-08-11T05:14:49;15.30;99.90
5834;DHT22;2943;48.012;10.968;2022-08-11T05:17:38;15.30;99.90
5834;DHT22;2943;48.012;10.968;2022-08-11T05:20:25;15.30;99.90
5834;DHT22;2943;48.012;10.968;2022-08-11T05:23:10;15.30;99.90
5834;DHT22;2943;48.012;10.968;2022-08-11T05:26:00;15.30;99.90
5834;DHT22;2943;48.012;10.968;2022-08-11T05:28:52;15.30;99.90
5834;DHT22;2943;48.012;10.968;2022-08-11T05:31:40;15.40;99.90
5834;DHT22;2943;48.012;10.968;2022-08-11T05:34:31;15.80;99.90
5834;DHT22;2943;48.012;10.968;2022-08-11T05:37:22;16.20;99.90
5834;DHT22;2943;48.012;10.968;2022-08-11T05:39:54;16.50;99.90
5834;DHT22;2943;48.012;10.968;2022-08-11T05:42:48;16.60;99.90
5834;DHT22;2943;48.012;10.968;2022-08-11T05:45:34;16.50;99.90
5834;DHT22;2943;48.012;10.968;2022-08-11T05:48:20;16.40;99.90
5834;DHT22;2943;48.012;10.968;2022-08-11T05:51:05;16.30;99.90
5834;DHT22;2943;48.012;10.968;2022-08-11T05:53:52;16.30;99.90
5834;DHT22;2943;48.012;10.968;2022-08-11T05:56:42;16.20;99.90
5834;DHT22;2943;48.012;10.968;2022-08-11T05:59:16;16.20;99.90
5834;DHT22;2943;48.012;10.968;2022-08-11T06:01:45;16.10;99.90
5834;DHT22;2943;48.012;10.968;2022-08-11T06:04:17;16.10;99.90
5834;DHT22;2943;48.012;10.968;2022-08-11T06:06:50;16.10;99.90
5834;DHT22;2943;48.012;10.968;2022-08-11T06:09:31;16.20;99.90
5834;DHT22;2943;48.012;10.968;2022-08-11T06:12:02;16.20;99.90
5834;DHT22;2943;48.012;10.968;2022-08-11T06:14:32;16.20;99.90
5834;DHT22;2943;48.012;10.968;2022-08-11T06:17:02;16.20;99.90
5834;DHT22;2943;48.012;10.968;2022-08-11T06:19:33;16.20;99.90
5834;DHT22;2943;48.012;10.968;2022-08-11T06:22:02;16.20;99.90
5834;DHT22;2943;48.012;10.968;2022-08-11T06:24:31;16.20;99.90
5834;DHT22;2943;48.012;10.968;2022-08-11T06:26:59;16.30;99.90
5834;DHT22;2943;48.012;10.968;2022-08-11T06:29:28;16.30;99.90
5834;DHT22;2943;48.012;10.968;2022-08-11T06:32:00;16.30;99.90
5834;DHT22;2943;48.012;10.968;2022-08-11T06:34:36;16.40;99.90
5834;DHT22;2943;48.012;10.968;2022-08-11T06:37:17;16.40;99.90
5834;DHT22;2943;48.012;10.968;2022-08-11T06:39:49;16.40;99.90
5834;DHT22;2943;48.012;10.968;2022-08-11T06:42:35;16.50;99.90
5834;DHT22;2943;48.012;10.968;2022-08-11T06:45:10;16.60;99.90
5834;DHT22;2943;48.012;10.968;2022-08-11T06:47:44;16.60;99.90
5834;DHT22;2943;48.012;10.968;2022-08-11T06:50:18;16.70;99.90
5834;DHT22;2943;48.012;10.968;2022-08-11T06:53:05;16.70;99.90
5834;DHT22;2943;48.012;10.968;2022-08-11T06:55:37;16.80;99.90
5834;DHT22;2943;48.012;10.968;2022-08-11T06:58:27;16.90;99.90
5834;DHT22;2943;48.012;10.968;2022-08-11T07:01:14;16.90;99.90
5834;DHT22;2943;48.012;10.968;2022-08-11T07:03:48;17.00;99.90
5834;DHT22;2943;48.012;10.968;2022-08-11T07:06:34;17.00;99.90
5834;DHT22;2943;48.012;10.968;2022-08-11T07:09:37;17.10;99.90
5834;DHT22;2943;48.012;10.968;2022-08-11T07:12:42;17.20;99.90
5834;DHT22;2943;48.012;10.968;2022-08-11T07:15:34;17.20;99.90
5834;DHT22;2943;48.012;10.968;2022-08-11T07:18:10;17.30;99.90
5834;DHT22;2943;48.012;10.968;2022-08-11T07:21:13;17.40;99.90
5834;DHT22;2943;48.012;10.968;2022-08-11T07:24:03;17.40;99.90
5834;DHT22;2943;48.012;10.968;2022-08-11T07:26:54;17.40;99.90
5834;DHT22;2943;48.012;10.968;2022-08-11T07:29:51;17.50;99.90
5834;DHT22;2943;48.012;10.968;2022-08-11T07:32:24;17.70;99.90
5834;DHT22;2943;48.012;10.968;2022-08-11T07:34:57;17.80;99.90
5834;DHT22;2943;48.012;10.968;2022-08-11T07:37:30;17.80;99.90
5834;DHT22;2943;48.012;10.968;2022-08-11T07:39:59;17.90;99.90
5834;DHT22;2943;48.012;10.968;2022-08-11T07:42:31;18.00;99.90
5834;DHT22;2943;48.012;10.968;2022-08-11T07:45:03;18.10;99.90
5834;DHT22;2943;48.012;10.968;2022-08-11T07:47:48;18.20;99.90
5834;DHT22;2943;48.012;10.968;2022-08-11T07:50:33;18.20;99.90
5834;DHT22;2943;48.012;10.968;2022-08-11T07:53:21;18.30;99.90
5834;DHT22;2943;48.012;10.968;2022-08-11T07:55:48;18.40;99.90
5834;DHT22;2943;48.012;10.968;2022-08-11T07:58:16;18.50;99.90
5834;DHT22;2943;48.012;10.968;2022-08-11T08:01:04;18.60;99.90
5834;DHT22;2943;48.012;10.968;2022-08-11T08:03:50;18.70;99.90
5834;DHT22;2943;48.012;10.968;2022-08-11T08:06:35;18.80;99.90
5834;DHT22;2943;48.012;10.968;2022-08-11T08:09:22;18.90;99.90
5834;DHT22;2943;48.012;10.968;2022-08-11T08:12:08;19.00;99.90
5834;DHT22;2943;48.012;10.968;2022-08-11T08:14:55;19.10;99.90
5834;DHT22;2943;48.012;10.968;2022-08-11T08:17:42;19.20;99.90
5834;DHT22;2943;48.012;10.968;2022-08-11T08:20:25;19.20;99.90
5834;DHT22;2943;48.012;10.968;2022-08-11T08:22:55;19.20;99.90
5834;DHT22;2943;48.012;10.968;2022-08-11T08:25:26;19.20;99.90
5834;DHT22;2943;48.012;10.968;2022-08-11T08:27:55;19.20;99.90
5834;DHT22;2943;48.012;10.968;2022-08-11T08:30:24;19.30;99.90
5834;DHT22;2943;48.012;10.968;2022-08-11T08:33:11;19.40;99.90
5834;DHT22;2943;48.012;10.968;2022-08-11T08:35:40;19.50;99.90
5834;DHT22;2943;48.012;10.968;2022-08-11T08:38:09;19.60;99.90
5834;DHT22;2943;48.012;10.968;2022-08-11T08:40:41;19.70;99.90
5834;DHT22;2943;48.012;10.968;2022-08-11T08:43:24;19.80;99.90
5834;DHT22;2943;48.012;10.968;2022-08-11T08:45:55;19.80;99.90
5834;DHT22;2943;48.012;10.968;2022-08-11T08:48:25;19.90;99.90
5834;DHT22;2943;48.012;10.968;2022-08-11T08:51:00;20.00;99.90
5834;DHT22;2943;48.012;10.968;2022-08-11T08:53:48;20.10;99.90
5834;DHT22;2943;48.012;10.968;2022-08-11T08:56:18;20.20;99.90
5834;DHT22;2943;48.012;10.968;2022-08-11T08:58:48;20.30;99.90
5834;DHT22;2943;48.012;10.968;2022-08-11T09:01:17;20.30;99.90
5834;DHT22;2943;48.012;10.968;2022-08-11T09:03:47;20.40;99.90
5834;DHT22;2943;48.012;10.968;2022-08-11T09:06:15;20.40;99.90
5834;DHT22;2943;48.012;10.968;2022-08-11T09:08:43;20.50;99.90
5834;DHT22;2943;48.012;10.968;2022-08-11T09:11:13;20.60;99.90
5834;DHT22;2943;48.012;10.968;2022-08-11T09:14:00;20.70;99.90
5834;DHT22;2943;48.012;10.968;2022-08-11T09:16:29;20.70;99.90
5834;DHT22;2943;48.012;10.968;2022-08-11T09:18:57;20.80;99.90
5834;DHT22;2943;48.012;10.968;2022-08-11T09:21:26;20.90;99.90
5834;DHT22;2943;48.012;10.968;2022-08-11T09:23:55;20.90;99.90
5834;DHT22;2943;48.012;10.968;2022-08-11T09:26:40;20.90;99.90
5834;DHT22;2943;48.012;10.968;2022-08-11T09:29:30;21.00;99.90
5834;DHT22;2943;48.012;10.968;2022-08-11T09:31:58;21.10;99.90
5834;DHT22;2943;48.012;10.968;2022-08-11T09:34:26;21.10;99.90
5834;DHT22;2943;48.012;10.968;2022-08-11T09:36:54;21.20;99.90
5834;DHT22;2943;48.012;10.968;2022-08-11T09:39:40;21.30;99.90
5834;DHT22;2943;48.012;10.968;2022-08-11T09:42:26;21.30;99.90
5834;DHT22;2943;48.012;10.968;2022-08-11T09:45:16;21.40;99.90
5834;DHT22;2943;48.012;10.968;2022-08-11T09:47:43;21.50;99.90
5834;DHT22;2943;48.012;10.968;2022-08-11T09:50:11;21.60;99.90
5834;DHT22;2943;48.012;10.968;2022-08-11T09:52:42;21.80;99.90
5834;DHT22;2943;48.012;10.968;2022-08-11T09:55:13;21.90;99.90
5834;DHT22;2943;48.012;10.968;2022-08-11T09:57:44;22.00;99.90
5834;DHT22;2943;48.012;10.968;2022-08-11T10:00:33;22.10;99.90
5834;DHT22;2943;48.012;10.968;2022-08-11T10:03:03;22.20;99.90
5834;DHT22;2943;48.012;10.968;2022-08-11T10:05:33;22.30;99.90
5834;DHT22;2943;48.012;10.968;2022-08-11T10:08:18;22.30;99.90
5834;DHT22;2943;48.012;10.968;2022-08-11T10:10:46;22.50;99.90
5834;DHT22;2943;48.012;10.968;2022-08-11T10:13:17;22.60;99.90
5834;DHT22;2943;48.012;10.968;2022-08-11T10:15:54;22.70;99.90
5834;DHT22;2943;48.012;10.968;2022-08-11T10:18:29;22.70;99.90
5834;DHT22;2943;48.012;10.968;2022-08-11T10:21:31;22.80;99.90
5834;DHT22;2943;48.012;10.968;2022-08-11T10:24:04;22.90;99.90
5834;DHT22;2943;48.012;10.968;2022-08-11T10:26:49;23.00;99.90
5834;DHT22;2943;48.012;10.968;2022-08-11T10:29:22;23.10;99.90
5834;DHT22;2943;48.012;10.968;2022-08-11T10:32:09;23.10;99.90
5834;DHT22;2943;48.012;10.968;2022-08-11T10:34:54;23.20;99.90
5834;DHT22;2943;48.012;10.968;2022-08-11T10:37:23;23.30;99.90
5834;DHT22;2943;48.012;10.968;2022-08-11T10:39:52;23.40;99.90
5834;DHT22;2943;48.012;10.968;2022-08-11T10:42:21;23.40;99.90
5834;DHT22;2943;48.012;10.968;2022-08-11T10:45:07;23.50;99.90
5834;DHT22;2943;48.012;10.968;2022-08-11T10:47:57;23.50;99.90
5834;DHT22;2943;48.012;10.968;2022-08-11T10:50:25;23.70;99.90
5834;DHT22;2943;48.012;10.968;2022-08-11T10:53:10;23.70;99.90
5834;DHT22;2943;48.012;10.968;2022-08-11T10:55:56;23.80;99.90
5834;DHT22;2943;48.012;10.968;2022-08-11T10:58:42;23.90;99.90
5834;DHT22;2943;48.012;10.968;2022-08-11T11:01:18;24.00;99.90
5834;DHT22;2943;48.012;10.968;2022-08-11T11:03:50;24.10;99.90
5834;DHT22;2943;48.012;10.968;2022-08-11T11:06:22;24.20;99.90
5834;DHT22;2943;48.012;10.968;2022-08-11T11:08:56;24.30;99.90
5834;DHT22;2943;48.012;10.968;2022-08-11T11:11:27;24.40;99.90
5834;DHT22;2943;48.012;10.968;2022-08-11T11:14:11;24.50;99.90
5834;DHT22;2943;48.012;10.968;2022-08-11T11:16:59;24.60;99.90
5834;DHT22;2943;48.012;10.968;2022-08-11T11:19:46;24.60;99.90
5834;DHT22;2943;48.012;10.968;2022-08-11T11:22:17;24.70;99.90
5834;DHT22;2943;48.012;10.968;2022-08-11T11:25:16;24.70;99.90
5834;DHT22;2943;48.012;10.968;2022-08-11T11:31:05;24.90;99.90
5834;DHT22;2943;48.012;10.968;2022-08-11T11:33:52;25.00;99.90
5834;DHT22;2943;48.012;10.968;2022-08-11T11:36:33;25.00;99.90
5834;DHT22;2943;48.012;10.968;2022-08-11T11:39:06;25.10;99.90
5834;DHT22;2943;48.012;10.968;2022-08-11T11:41:35;25.10;99.90
5834;DHT22;2943;48.012;10.968;2022-08-11T11:44:03;25.20;99.90
5834;DHT22;2943;48.012;10.968;2022-08-11T11:46:31;25.30;99.90
5834;DHT22;2943;48.012;10.968;2022-08-11T11:49:00;25.40;99.90
5834;DHT22;2943;48.012;10.968;2022-08-11T11:51:36;25.40;99.90
5834;DHT22;2943;48.012;10.968;2022-08-11T11:54:04;25.60;99.90
5834;DHT22;2943;48.012;10.968;2022-08-11T11:56:32;25.70;99.90
5834;DHT22;2943;48.012;10.968;2022-08-11T11:59:01;25.80;99.50
5834;DHT22;2943;48.012;10.968;2022-08-11T12:01:46;25.90;99.10
5834;DHT22;2943;48.012;10.968;2022-08-11T12:04:15;26.00;99.50
5834;DHT22;2943;48.012;10.968;2022-08-11T12:06:45;26.10;98.20
5834;DHT22;2943;48.012;10.968;2022-08-11T12:09:13;26.10;98.20
5834;DHT22;2943;48.012;10.968;2022-08-11T12:11:43;26.20;98.20
5834;DHT22;2943;48.012;10.968;2022-08-11T12:14:28;26.20;97.60
5834;DHT22;2943;48.012;10.968;2022-08-11T12:16:56;26.30;98.20
5834;DHT22;2943;48.012;10.968;2022-08-11T12:19:26;26.40;97.70
5834;DHT22;2943;48.012;10.968;2022-08-11T12:21:57;26.50;97.70
5834;DHT22;2943;48.012;10.968;2022-08-11T12:24:42;26.70;97.70
5834;DHT22;2943;48.012;10.968;2022-08-11T12:27:29;26.80;97.30
5834;DHT22;2943;48.012;10.968;2022-08-11T12:29:59;26.80;95.80
5834;DHT22;2943;48.012;10.968;2022-08-11T12:32:28;26.70;97.10
5834;DHT22;2943;48.012;10.968;2022-08-11T12:34:56;26.80;97.40
5834;DHT22;2943;48.012;10.968;2022-08-11T12:37:29;27.00;98.30
5834;DHT22;2943;48.012;10.968;2022-08-11T12:39:59;27.10;96.80
5834;DHT22;2943;48.012;10.968;2022-08-11T12:42:45;27.30;95.90
5834;DHT22;2943;48.012;10.968;2022-08-11T12:45:31;27.40;95.40
5834;DHT22;2943;48.012;10.968;2022-08-11T12:48:06;27.50;95.80
5834;DHT22;2943;48.012;10.968;2022-08-11T12:50:55;27.50;95.00
5834;DHT22;2943;48.012;10.968;2022-08-11T12:53:54;27.60;94.40
5834;DHT22;2943;48.012;10.968;2022-08-11T12:56:23;27.70;94.30
5834;DHT22;2943;48.012;10.968;2022-08-11T12:59:10;27.70;94.00
5834;DHT22;2943;48.012;10.968;2022-08-11T13:01:55;27.70;94.10
5834;DHT22;2943;48.012;10.968;2022-08-11T13:04:41;27.60;94.60
5834;DHT22;2943;48.012;10.968;2022-08-11T13:07:21;27.60;94.00
5834;DHT22;2943;48.012;10.968;2022-08-11T13:09:51;27.70;94.20
5834;DHT22;2943;48.012;10.968;2022-08-11T13:12:20;27.80;94.00
5834;DHT22;2943;48.012;10.968;2022-08-11T13:15:04;28.00;94.00
5834;DHT22;2943;48.012;10.968;2022-08-11T13:17:32;28.00;92.70
5834;DHT22;2943;48.012;10.968;2022-08-11T13:20:01;28.10;93.10
5834;DHT22;2943;48.012;10.968;2022-08-11T13:22:29;28.10;93.30
5834;DHT22;2943;48.012;10.968;2022-08-11T13:24:58;28.20;93.80
5834;DHT22;2943;48.012;10.968;2022-08-11T13:27:26;28.20;92.50
5834;DHT22;2943;48.012;10.968;2022-08-11T13:29:54;28.30;93.30
5834;DHT22;2943;48.012;10.968;2022-08-11T13:32:43;28.30;92.70
5834;DHT22;2943;48.012;10.968;2022-08-11T13:35:12;28.40;92.30
5834;DHT22;2943;48.012;10.968;2022-08-11T13:37:43;28.30;93.80
5834;DHT22;2943;48.012;10.968;2022-08-11T13:40:15;28.40;92.60
5834;DHT22;2943;48.012;10.968;2022-08-11T13:42:44;28.50;92.30
5834;DHT22;2943;48.012;10.968;2022-08-11T13:45:15;28.70;91.30
5834;DHT22;2943;48.012;10.968;2022-08-11T13:47:43;28.70;91.20
5834;DHT22;2943;48.012;10.968;2022-08-11T13:50:11;28.80;92.00
5834;DHT22;2943;48.012;10.968;2022-08-11T13:52:41;28.90;90.80
5834;DHT22;2943;48.012;10.968;2022-08-11T13:55:12;29.00;90.20
5834;DHT22;2943;48.012;10.968;2022-08-11T13:57:49;29.00;90.90
5834;DHT22;2943;48.012;10.968;2022-08-11T14:00:18;29.00;90.50
5834;DHT22;2943;48.012;10.968;2022-08-11T14:02:49;29.00;90.10
5834;DHT22;2943;48.012;10.968;2022-08-11T14:05:18;28.90;90.90
5834;DHT22;2943;48.012;10.968;2022-08-11T14:07:51;29.00;89.50
5834;DHT22;2943;48.012;10.968;2022-08-11T14:10:22;28.90;88.90
5834;DHT22;2943;48.012;10.968;2022-08-11T14:12:56;28.80;89.80
5834;DHT22;2943;48.012;10.968;2022-08-11T14:15:44;28.90;89.20
5834;DHT22;2943;48.012;10.968;2022-08-11T14:18:16;28.90;89.50
5834;DHT22;2943;48.012;10.968;2022-08-11T14:20:48;29.00;90.10
5834;DHT22;2943;48.012;10.968;2022-08-11T14:23:47;29.10;90.10
5834;DHT22;2943;48.012;10.968;2022-08-11T14:26:17;29.40;89.60
5834;DHT22;2943;48.012;10.968;2022-08-11T14:28:55;29.40;88.50
5834;DHT22;2943;48.012;10.968;2022-08-11T14:31:25;29.50;88.30
5834;DHT22;2943;48.012;10.968;2022-08-11T14:33:54;29.50;86.90
5834;DHT22;2943;48.012;10.968;2022-08-11T14:36:24;29.50;86.70
5834;DHT22;2943;48.012;10.968;2022-08-11T14:38:53;29.60;87.20
5834;DHT22;2943;48.012;10.968;2022-08-11T14:41:23;29.50;86.40
5834;DHT22;2943;48.012;10.968;2022-08-11T14:44:08;29.50;87.30
5834;DHT22;2943;48.012;10.968;2022-08-11T14:46:54;29.70;88.00
5834;DHT22;2943;48.012;10.968;2022-08-11T14:49:33;29.90;86.60
5834;DHT22;2943;48.012;10.968;2022-08-11T14:52:03;30.10;86.10
5834;DHT22;2943;48.012;10.968;2022-08-11T14:54:31;30.30;86.70
5834;DHT22;2943;48.012;10.968;2022-08-11T14:57:18;30.40;85.40
5834;DHT22;2943;48.012;10.968;2022-08-11T14:59:48;30.50;83.40
5834;DHT22;2943;48.012;10.968;2022-08-11T15:02:17;30.50;83.30
5834;DHT22;2943;48.012;10.968;2022-08-11T15:05:03;30.50;82.60
5834;DHT22;2943;48.012;10.968;2022-08-11T15:07:32;30.40;83.90
5834;DHT22;2943;48.012;10.968;2022-08-11T15:10:03;30.30;82.20
5834;DHT22;2943;48.012;10.968;2022-08-11T15:12:34;30.20;83.10
5834;DHT22;2943;48.012;10.968;2022-08-11T15:15:04;30.10;82.00
5834;DHT22;2943;48.012;10.968;2022-08-11T15:17:52;29.90;83.50
5834;DHT22;2943;48.012;10.968;2022-08-11T15:20:21;29.80;83.20
5834;DHT22;2943;48.012;10.968;2022-08-11T15:23:06;29.70;83.30
5834;DHT22;2943;48.012;10.968;2022-08-11T15:25:55;29.50;84.30
5834;DHT22;2943;48.012;10.968;2022-08-11T15:28:26;29.50;83.40
5834;DHT22;2943;48.012;10.968;2022-08-11T15:31:13;29.40;83.80
5834;DHT22;2943;48.012;10.968;2022-08-11T15:34:01;29.50;85.20
5834;DHT22;2943;48.012;10.968;2022-08-11T15:36:47;29.60;83.30
5834;DHT22;2943;48.012;10.968;2022-08-11T15:39:35;29.70;82.60
5834;DHT22;2943;48.012;10.968;2022-08-11T15:42:24;29.80;83.20
5834;DHT22;2943;48.012;10.968;2022-08-11T15:45:22;30.00;82.30
5834;DHT22;2943;48.012;10.968;2022-08-11T15:48:11;30.10;82.60
5834;DHT22;2943;48.012;10.968;2022-08-11T15:50:47;30.20;80.90
5834;DHT22;2943;48.012;10.968;2022-08-11T15:53:20;30.20;81.20
5834;DHT22;2943;48.012;10.968;2022-08-11T15:55:51;30.30;83.10
5834;DHT22;2943;48.012;10.968;2022-08-11T15:58:19;30.30;80.50
5834;DHT22;2943;48.012;10.968;2022-08-11T16:01:07;30.30;79.80
5834;DHT22;2943;48.012;10.968;2022-08-11T16:03:56;30.30;79.70
5834;DHT22;2943;48.012;10.968;2022-08-11T16:06:48;30.30;79.40
5834;DHT22;2943;48.012;10.968;2022-08-11T16:09:31;30.40;79.80
5834;DHT22;2943;48.012;10.968;2022-08-11T16:12:02;30.50;79.40
5834;DHT22;2943;48.012;10.968;2022-08-11T16:14:33;30.60;78.50
5834;DHT22;2943;48.012;10.968;2022-08-11T16:17:24;30.70;77.20
5834;DHT22;2943;48.012;10.968;2022-08-11T16:19:53;30.60;77.50
5834;DHT22;2943;48.012;10.968;2022-08-11T16:22:24;30.60;77.00
5834;DHT22;2943;48.012;10.968;2022-08-11T16:25:00;30.60;77.40
5834;DHT22;2943;48.012;10.968;2022-08-11T16:27:29;30.50;78.00
5834;DHT22;2943;48.012;10.968;2022-08-11T16:29:59;30.50;77.20
5834;DHT22;2943;48.012;10.968;2022-08-11T16:32:30;30.50;76.40
5834;DHT22;2943;48.012;10.968;2022-08-11T16:35:02;30.50;77.70
5834;DHT22;2943;48.012;10.968;2022-08-11T16:37:48;30.60;78.50
5834;DHT22;2943;48.012;10.968;2022-08-11T16:40:34;30.70;77.10
5834;DHT22;2943;48.012;10.968;2022-08-11T16:43:06;30.60;75.50
5834;DHT22;2943;48.012;10.968;2022-08-11T16:46:04;30.50;75.80
5834;DHT22;2943;48.012;10.968;2022-08-11T16:49:01;30.40;76.30
5834;DHT22;2943;48.012;10.968;2022-08-11T16:51:31;30.00;75.20
5834;DHT22;2943;48.012;10.968;2022-08-11T16:53:59;29.80;76.80
5834;DHT22;2943;48.012;10.968;2022-08-11T16:56:30;29.50;76.70
5834;DHT22;2943;48.012;10.968;2022-08-11T16:59:00;29.30;76.80
5834;DHT22;2943;48.012;10.968;2022-08-11T17:01:41;29.20;77.20
5834;DHT22;2943;48.012;10.968;2022-08-11T17:04:18;29.20;77.70
5834;DHT22;2943;48.012;10.968;2022-08-11T17:07:04;29.30;77.60
5834;DHT22;2943;48.012;10.968;2022-08-11T17:09:57;29.40;77.40
5834;DHT22;2943;48.012;10.968;2022-08-11T17:12:45;29.50;76.10
5834;DHT22;2943;48.012;10.968;2022-08-11T17:15:31;29.50;76.40
5834;DHT22;2943;48.012;10.968;2022-08-11T17:18:16;29.40;76.00
5834;DHT22;2943;48.012;10.968;2022-08-11T17:21:02;29.30;76.40
5834;DHT22;2943;48.012;10.968;2022-08-11T17:23:30;29.20;76.30
5834;DHT22;2943;48.012;10.968;2022-08-11T17:26:17;29.20;76.20
5834;DHT22;2943;48.012;10.968;2022-08-11T17:28:47;29.20;76.40
5834;DHT22;2943;48.012;10.968;2022-08-11T17:31:18;29.20;75.70
5834;DHT22;2943;48.012;10.968;2022-08-11T17:34:05;29.10;76.40
5834;DHT22;2943;48.012;10.968;2022-08-11T17:36:53;29.00;78.10
5834;DHT22;2943;48.012;10.968;2022-08-11T17:39:24;29.10;77.90
5834;DHT22;2943;48.012;10.968;2022-08-11T17:41:54;29.20;76.80
5834;DHT22;2943;48.012;10.968;2022-08-11T17:44:40;29.20;76.30
5834;DHT22;2943;48.012;10.968;2022-08-11T17:47:26;29.20;75.70
5834;DHT22;2943;48.012;10.968;2022-08-11T17:50:13;29.10;75.50
5834;DHT22;2943;48.012;10.968;2022-08-11T17:52:42;29.10;75.60